Time;durP1;ratioP1;P1;durP2;ratioP2;P2;SDS_P1;SDS_P2;PMS_P1;PMS_P2;Temp;Humidity;BMP_temperature;BMP_pressure;BME280_temperature;BME280_humidity;BME280_pressure;Samples;Min_cycle;Max_cycle;Signal;HPM_P1;HPM_P2
2021/09/24 00:01:39;;;;;;;7.80;0.93;;;;;;;13.50;80.06;99990.97;5083014;28;20059;-79
2021/09/24 00:04:06;;;;;;;5.22;0.88;;;;;;;13.44;79.19;99988.41;5094642;28;20024;-79
2021/09/24 00:06:31;;;;;;;6.55;1.25;;;;;;;13.48;79.09;99993.13;5085018;28;20028;-80
2021/09/24 00:08:57;;;;;;;3.33;0.80;;;;;;;13.45;78.03;99996.28;5093062;28;20047;-81
2021/09/24 00:11:22;;;;;;;6.47;1.02;;;;;;;13.38;78.87;99982.91;5101620;28;20032;-80
2021/09/24 00:13:47;;;;;;;6.88;1.13;;;;;;;13.50;77.46;100011.78;5084195;28;20457;-79
2021/09/24 00:16:14;;;;;;;6.05;1.10;;;;;;;13.49;77.08;99993.94;5084787;28;20047;-79
2021/09/24 00:18:40;;;;;;;4.82;1.23;;;;;;;13.45;75.47;99993.59;5100729;28;20047;-79
2021/09/24 00:21:05;;;;;;;4.60;1.05;;;;;;;13.51;75.86;100008.84;5090528;28;20079;-81
2021/09/24 00:23:31;;;;;;;4.95;1.40;;;;;;;13.46;76.30;100016.03;5112202;28;20365;-81
2021/09/24 00:25:56;;;;;;;4.05;0.90;;;;;;;13.52;73.85;100015.91;5107811;28;20402;-80
2021/09/24 00:28:21;;;;;;;4.78;0.70;;;;;;;13.54;72.26;99996.72;5079464;28;20050;-79
2021/09/24 00:30:47;;;;;;;6.38;1.13;;;;;;;13.52;74.60;99999.69;5089302;28;20048;-80
2021/09/24 00:33:12;;;;;;;3.35;0.80;;;;;;;13.50;73.10;100018.00;5075772;28;20043;-80
2021/09/24 00:35:38;;;;;;;4.00;0.95;;;;;;;13.49;71.64;100008.25;5077764;28;20024;-80
2021/09/24 00:38:04;;;;;;;5.05;0.50;;;;;;;13.54;72.92;100035.41;5096581;28;20032;-79
2021/09/24 00:40:32;;;;;;;2.70;0.65;;;;;;;13.54;73.33;100027.31;5077168;28;20047;-79
2021/09/24 00:42:58;;;;;;;6.13;0.75;;;;;;;13.51;75.31;100013.41;5095708;28;20039;-79
2021/09/24 00:45:23;;;;;;;2.47;0.68;;;;;;;13.48;74.84;100003.94;5103535;28;20031;-81
2021/09/24 00:47:49;;;;;;;4.65;0.65;;;;;;;13.37;73.61;100002.84;5094371;28;20028;-79
2021/09/24 00:50:14;;;;;;;5.60;0.65;;;;;;;13.46;72.57;100026.84;5086801;28;20049;-80
2021/09/24 00:52:39;;;;;;;3.53;0.52;;;;;;;13.49;73.03;100032.59;5103932;28;20081;-80
2021/09/24 00:55:07;;;;;;;6.07;0.90;;;;;;;13.52;74.44;100039.41;5099041;28;20052;-80
2021/09/24 00:57:33;;;;;;;7.95;1.15;;;;;;;13.50;78.54;100047.72;5101833;28;20043;-79
2021/09/24 00:59:59;;;;;;;6.78;1.10;;;;;;;13.31;80.40;100017.34;5102952;28;20119;-80
2021/09/24 01:02:24;;;;;;;6.85;1.40;;;;;;;13.42;81.12;100048.09;5103006;28;20055;-80
2021/09/24 01:04:49;;;;;;;4.47;0.85;;;;;;;13.41;78.36;100041.06;5102137;28;20533;-79
2021/09/24 01:07:15;;;;;;;7.78;1.20;;;;;;;13.45;78.50;100042.22;5068182;28;20133;-79
2021/09/24 01:09:40;;;;;;;6.70;1.10;;;;;;;13.41;79.98;100041.06;5083975;28;20070;-79
2021/09/24 01:12:07;;;;;;;9.07;1.05;;;;;;;13.40;82.34;100050.22;5104188;28;20407;-80
2021/09/24 01:14:32;;;;;;;6.10;0.88;;;;;;;13.34;80.99;100029.53;5084612;28;20163;-78
2021/09/24 01:16:59;;;;;;;5.28;1.30;;;;;;;13.35;80.88;100031.19;5103227;28;20045;-79
2021/09/24 01:19:25;;;;;;;8.93;0.88;;;;;;;13.35;79.27;100042.00;5105133;28;20029;-79
2021/09/24 01:21:52;;;;;;;6.00;0.88;;;;;;;13.36;78.74;100049.03;5104940;28;20023;-79
2021/09/24 01:24:17;;;;;;;6.88;1.00;;;;;;;13.36;78.60;100039.06;5107304;28;20028;-82
2021/09/24 01:26:48;;;;;;;5.75;1.38;;;;;;;13.38;77.88;100046.94;5089289;28;20430;-79
2021/09/24 01:29:13;;;;;;;5.53;1.23;;;;;;;13.37;78.62;100035.28;5078845;28;20461;-79
2021/09/24 01:31:40;;;;;;;7.05;1.17;;;;;;;13.25;80.19;100014.75;5079633;28;20064;-79
2021/09/24 01:34:06;;;;;;;6.82;0.95;;;;;;;13.22;80.19;100026.00;5078397;28;20020;-80
2021/09/24 01:36:31;;;;;;;5.03;1.02;;;;;;;13.16;78.05;100033.97;5097756;28;20039;-80
2021/09/24 01:39:02;;;;;;;4.15;0.77;;;;;;;13.19;76.08;100029.19;5100898;28;20024;-79
2021/09/24 01:41:27;;;;;;;2.58;0.70;;;;;;;13.27;76.89;100037.75;5118113;28;20027;-79
2021/09/24 01:43:53;;;;;;;5.20;0.80;;;;;;;13.26;76.59;100014.50;5117465;28;20043;-79
2021/09/24 01:46:18;;;;;;;6.55;0.90;;;;;;;13.26;77.31;100059.63;5120380;28;20127;-80
2021/09/24 01:48:44;;;;;;;4.57;1.00;;;;;;;13.26;77.65;100040.72;5110847;28;20038;-80
2021/09/24 01:51:10;;;;;;;3.78;0.82;;;;;;;13.17;76.54;100024.81;5101757;28;20461;-80
2021/09/24 01:53:35;;;;;;;5.53;0.70;;;;;;;13.19;76.68;100030.00;5100913;28;20040;-80
2021/09/24 01:56:00;;;;;;;4.90;0.75;;;;;;;13.24;77.05;100042.78;5101638;28;20027;-79
2021/09/24 01:58:26;;;;;;;4.10;0.70;;;;;;;13.20;75.85;100049.72;5073077;28;20028;-80
2021/09/24 02:00:51;;;;;;;5.63;0.88;;;;;;;13.15;77.64;100047.75;5085230;28;20034;-80
2021/09/24 02:03:17;;;;;;;6.18;0.90;;;;;;;13.20;77.95;100049.72;5101868;28;20031;-80
2021/09/24 02:05:42;;;;;;;5.22;1.15;;;;;;;13.18;77.51;100058.06;5099109;28;20085;-80
2021/09/24 02:08:07;;;;;;;6.22;0.90;;;;;;;13.17;78.37;100053.72;5081553;28;20064;-80
2021/09/24 02:10:33;;;;;;;5.57;0.90;;;;;;;13.10;75.05;100036.81;5079571;28;20069;-79
2021/09/24 02:13:01;;;;;;;7.75;1.00;;;;;;;13.22;75.63;100036.81;5098497;28;20032;-79
2021/09/24 02:15:26;;;;;;;3.13;0.60;;;;;;;13.21;73.87;100051.34;5082469;28;20039;-79
2021/09/24 02:17:52;;;;;;;1.80;0.55;;;;;;;13.23;74.06;100044.66;5096411;28;20040;-80
2021/09/24 02:20:17;;;;;;;4.28;0.70;;;;;;;13.24;73.52;100054.44;5068691;28;20044;-79
2021/09/24 02:22:43;;;;;;;4.18;0.68;;;;;;;13.19;74.16;100056.19;5093604;28;20446;-80
2021/09/24 02:25:09;;;;;;;6.10;1.02;;;;;;;13.26;73.62;100073.13;5091323;28;20032;-79
2021/09/24 02:27:34;;;;;;;3.00;0.73;;;;;;;13.26;74.12;100070.44;5095458;28;20036;-79
2021/09/24 02:29:59;;;;;;;4.60;0.77;;;;;;;13.17;75.15;100051.00;5080098;28;20132;-80
2021/09/24 02:32:25;;;;;;;4.75;0.70;;;;;;;13.25;74.42;100058.00;5091255;28;20027;-83
2021/09/24 02:34:50;;;;;;;3.33;0.60;;;;;;;13.15;73.83;100056.66;5112540;28;20402;-80
2021/09/24 02:37:16;;;;;;;6.13;0.77;;;;;;;13.21;73.72;100070.25;5089837;28;20028;-79
2021/09/24 02:39:41;;;;;;;4.78;0.75;;;;;;;13.14;76.52;100064.97;5103257;28;20020;-80
2021/09/24 02:42:07;;;;;;;5.07;1.00;;;;;;;13.13;75.85;100068.75;5107485;28;20338;-79
2021/09/24 02:44:32;;;;;;;5.50;1.10;;;;;;;13.10;77.08;100074.63;5106009;28;20025;-80
2021/09/24 02:46:57;;;;;;;4.00;0.50;;;;;;;13.07;76.97;100075.06;5073346;28;20028;-80
2021/09/24 02:49:23;;;;;;;4.85;1.25;;;;;;;13.02;78.91;100086.59;5106273;28;20253;-80
2021/09/24 02:51:48;;;;;;;8.32;0.68;;;;;;;12.93;77.84;100083.41;5105925;28;20024;-80
2021/09/24 02:54:14;;;;;;;3.13;0.60;;;;;;;12.98;76.20;100081.88;5107830;28;20036;-80
2021/09/24 02:56:39;;;;;;;1.80;0.50;;;;;;;12.92;75.13;100086.34;5089255;28;20046;-78
2021/09/24 02:59:04;;;;;;;4.82;0.60;;;;;;;12.97;74.72;100088.34;5088337;28;20036;-80
2021/09/24 03:01:30;;;;;;;3.28;0.47;;;;;;;12.91;73.32;100068.47;5105986;28;20040;-79
2021/09/24 03:03:55;;;;;;;2.70;0.50;;;;;;;12.93;74.40;100072.59;5105147;28;20024;-79
2021/09/24 03:06:21;;;;;;;4.22;0.77;;;;;;;12.92;72.69;100076.34;5105866;28;20414;-79
2021/09/24 03:08:46;;;;;;;3.70;0.52;;;;;;;12.91;73.70;100079.28;5086471;28;20024;-80
2021/09/24 03:11:12;;;;;;;3.83;0.60;;;;;;;12.82;73.43;100070.72;5105182;28;20027;-80
2021/09/24 03:13:37;;;;;;;3.95;0.70;;;;;;;12.84;73.98;100071.28;5105209;28;20047;-80
2021/09/24 03:16:04;;;;;;;2.38;0.43;;;;;;;12.88;74.30;100077.88;5085527;28;20445;-80
2021/09/24 03:18:30;;;;;;;2.70;0.57;;;;;;;12.89;74.86;100084.91;5084658;28;20038;-80
2021/09/24 03:20:55;;;;;;;4.53;0.80;;;;;;;12.89;75.11;100100.31;5085998;28;20029;-79
2021/09/24 03:23:21;;;;;;;1.75;0.52;;;;;;;12.81;74.90;100089.81;5086084;28;20036;-79
2021/09/24 03:25:48;;;;;;;4.07;0.68;;;;;;;12.70;76.46;100084.16;5087472;28;20028;-79
2021/09/24 03:28:14;;;;;;;6.03;1.10;;;;;;;12.73;77.44;100109.06;5085700;28;20064;-79
2021/09/24 03:30:41;;;;;;;5.82;0.65;;;;;;;12.68;79.62;100099.78;5084569;28;20090;-80
2021/09/24 03:33:06;;;;;;;8.73;1.10;;;;;;;12.78;81.40;100092.97;5086810;28;20020;-80
2021/09/24 03:35:32;;;;;;;4.50;0.82;;;;;;;12.84;81.23;100100.97;5068502;28;20090;-80
2021/09/24 03:37:57;;;;;;;5.13;0.90;;;;;;;12.89;80.82;100092.19;5085923;28;20036;-78
2021/09/24 03:40:23;;;;;;;5.70;0.90;;;;;;;12.92;80.62;100091.75;5085250;28;20016;-80
2021/09/24 03:42:48;;;;;;;3.78;0.80;;;;;;;12.85;79.97;100091.03;5086906;28;20029;-80
2021/09/24 03:45:14;;;;;;;4.68;0.80;;;;;;;12.93;78.64;100096.06;5101441;28;20052;-80
2021/09/24 03:47:39;;;;;;;5.95;0.50;;;;;;;12.84;77.99;100083.97;5082924;28;20492;-79
2021/09/24 03:50:06;;;;;;;5.20;0.80;;;;;;;12.98;77.18;100103.47;5083160;28;20033;-79
2021/09/24 03:52:31;;;;;;;4.78;0.70;;;;;;;12.94;76.21;100074.22;5086175;28;20048;-80
2021/09/24 03:54:57;;;;;;;3.55;0.82;;;;;;;12.95;76.21;100077.78;5098421;28;20032;-80
2021/09/24 03:57:22;;;;;;;5.72;1.40;;;;;;;12.86;76.78;100092.66;5085520;28;20035;-80
2021/09/24 03:59:47;;;;;;;2.60;0.52;;;;;;;12.99;76.84;100105.13;5101261;28;20024;-81
2021/09/24 04:02:13;;;;;;;4.43;0.70;;;;;;;12.96;77.60;100117.22;5102084;28;20028;-80
2021/09/24 04:04:38;;;;;;;3.47;0.60;;;;;;;12.94;77.42;100122.84;5082358;28;20036;-80
2021/09/24 04:07:05;;;;;;;6.65;0.85;;;;;;;12.90;77.16;100131.63;5065552;28;20023;-80
2021/09/24 04:09:31;;;;;;;5.22;0.80;;;;;;;12.98;78.22;100130.47;5099827;28;20669;-79
2021/09/24 04:11:56;;;;;;;4.90;0.80;;;;;;;12.92;77.86;100124.97;5100312;28;20036;-78
2021/09/24 04:14:21;;;;;;;6.07;0.80;;;;;;;12.93;77.94;100137.41;5100160;28;20070;-79
2021/09/24 04:16:47;;;;;;;2.63;0.73;;;;;;;12.96;78.84;100129.91;5100684;28;20032;-78
2021/09/24 04:19:12;;;;;;;4.10;0.88;;;;;;;12.92;78.81;100130.38;5103609;28;20561;-79
2021/09/24 04:21:37;;;;;;;5.85;1.17;;;;;;;12.97;79.85;100135.06;5096582;28;20079;-79
2021/09/24 04:24:03;;;;;;;3.17;0.73;;;;;;;12.85;77.10;100120.72;5104164;28;20292;-78
2021/09/24 04:26:29;;;;;;;6.20;0.80;;;;;;;12.89;76.50;100119.19;5100788;28;20028;-79
2021/09/24 04:28:54;;;;;;;2.90;0.68;;;;;;;13.00;75.84;100131.91;5078867;28;20153;-78
2021/09/24 04:31:20;;;;;;;6.18;0.85;;;;;;;12.98;79.04;100131.31;5095069;28;20462;-78
2021/09/24 04:33:45;;;;;;;6.18;0.95;;;;;;;12.94;78.38;100130.13;5089944;28;20488;-79
2021/09/24 04:36:10;;;;;;;7.78;0.73;;;;;;;12.95;79.27;100129.09;5091246;28;20085;-79
2021/09/24 04:38:36;;;;;;;6.38;0.73;;;;;;;12.77;79.66;100115.63;5092493;28;20107;-78
2021/09/24 04:41:01;;;;;;;6.32;0.68;;;;;;;12.76;79.26;100141.00;5096711;28;20031;-78
2021/09/24 04:43:27;;;;;;;5.10;0.88;;;;;;;12.74;78.64;100132.28;5071349;28;20115;-78
2021/09/24 04:45:53;;;;;;;3.25;0.40;;;;;;;12.80;78.15;100155.69;5080911;28;20454;-79
2021/09/24 04:48:18;;;;;;;5.03;0.80;;;;;;;12.74;76.80;100145.78;5097830;28;20481;-78
2021/09/24 04:50:43;;;;;;;5.15;0.73;;;;;;;12.80;77.09;100158.38;5087814;28;20032;-78
2021/09/24 04:53:09;;;;;;;3.13;0.60;;;;;;;12.59;77.64;100128.16;5079676;28;20139;-79
2021/09/24 04:55:34;;;;;;;3.78;0.70;;;;;;;12.74;77.92;100143.91;5097724;28;20091;-79
2021/09/24 04:58:00;;;;;;;6.60;0.93;;;;;;;12.80;76.33;100156.50;5098379;28;20020;-80
2021/09/24 05:00:25;;;;;;;6.25;0.77;;;;;;;12.89;76.69;100165.09;5067175;28;20072;-80
2021/09/24 05:02:51;;;;;;;4.30;0.60;;;;;;;12.68;75.11;100139.44;5102059;28;20043;-81
2021/09/24 05:05:16;;;;;;;5.70;0.77;;;;;;;12.86;76.40;100170.97;5091510;28;20118;-81
2021/09/24 05:07:41;;;;;;;4.38;0.70;;;;;;;12.84;76.30;100159.56;5088611;28;20113;-81
2021/09/24 05:10:08;;;;;;;4.72;0.75;;;;;;;12.87;75.94;100164.50;5101830;28;20044;-81
2021/09/24 05:12:33;;;;;;;3.45;1.00;;;;;;;12.82;75.13;100172.47;5105507;28;20074;-80
2021/09/24 05:14:59;;;;;;;7.82;0.63;;;;;;;12.91;73.95;100187.28;5102260;28;20373;-79
2021/09/24 05:17:24;;;;;;;2.08;0.60;;;;;;;12.95;74.49;100188.50;5062590;28;20024;-80
2021/09/24 05:19:51;;;;;;;4.97;0.80;;;;;;;12.88;74.86;100174.25;5064399;28;20021;-80
2021/09/24 05:22:16;;;;;;;5.03;0.60;;;;;;;12.95;76.37;100188.50;5072998;28;20035;-79
2021/09/24 05:24:42;;;;;;;4.72;0.80;;;;;;;12.90;75.57;100191.88;5094733;28;20350;-78
2021/09/24 05:27:07;;;;;;;3.35;0.60;;;;;;;12.93;74.35;100187.88;5095616;28;20028;-78
2021/09/24 05:29:33;;;;;;;3.42;0.80;;;;;;;12.92;74.98;100187.06;5080901;28;20117;-79
2021/09/24 05:32:00;;;;;;;3.45;0.75;;;;;;;12.83;75.83;100182.22;5073388;28;20048;-78
2021/09/24 05:34:25;;;;;;;6.75;1.33;;;;;;;12.96;75.94;100190.13;5089404;28;20378;-78
2021/09/24 05:36:50;;;;;;;3.03;0.57;;;;;;;12.98;75.53;100181.78;5085039;28;20043;-78
2021/09/24 05:39:18;;;;;;;4.78;0.85;;;;;;;12.85;74.29;100166.63;5092194;28;20119;-79
2021/09/24 05:41:43;;;;;;;3.45;0.60;;;;;;;12.99;74.42;100167.25;5079865;28;20028;-79
2021/09/24 05:44:08;;;;;;;2.83;0.63;;;;;;;12.97;74.61;100172.88;5087761;28;20081;-79
2021/09/24 05:46:34;;;;;;;3.83;0.80;;;;;;;12.98;73.89;100184.50;5068876;28;20452;-77
2021/09/24 05:48:59;;;;;;;2.20;0.50;;;;;;;12.93;73.06;100180.59;5089031;28;20031;-78
2021/09/24 05:51:25;;;;;;;3.72;0.68;;;;;;;13.01;73.28;100178.63;5089338;28;20483;-79
2021/09/24 05:53:50;;;;;;;3.33;0.73;;;;;;;13.07;72.83;100181.22;5091967;28;20020;-79
2021/09/24 05:56:16;;;;;;;2.35;0.60;;;;;;;13.05;72.54;100177.13;5087184;28;20030;-78
2021/09/24 05:58:41;;;;;;;5.68;0.88;;;;;;;13.03;72.89;100166.56;5074111;28;20044;-79
2021/09/24 06:01:07;;;;;;;3.85;1.00;;;;;;;13.06;73.05;100162.56;5073132;28;20025;-78
2021/09/24 06:03:33;;;;;;;1.83;0.40;;;;;;;13.20;73.14;100174.00;5087804;28;20028;-78
2021/09/24 06:05:58;;;;;;;2.50;0.40;;;;;;;13.17;73.33;100186.91;5094071;28;20035;-78
2021/09/24 06:08:24;;;;;;;8.73;0.88;;;;;;;13.20;73.39;100179.38;5091566;28;20182;-79
2021/09/24 06:10:49;;;;;;;4.43;0.77;;;;;;;13.19;74.00;100183.97;5076935;28;20602;-79
2021/09/24 06:13:14;;;;;;;4.13;0.65;;;;;;;13.14;73.88;100187.38;5059648;28;20032;-79
2021/09/24 06:15:40;;;;;;;8.23;0.90;;;;;;;13.15;73.76;100204.41;5123980;28;20027;-80
2021/09/24 06:18:06;;;;;;;5.25;0.90;;;;;;;13.11;73.54;100203.19;5125864;28;20032;-78
2021/09/24 06:20:32;;;;;;;4.75;0.70;;;;;;;13.17;74.70;100208.50;5099044;28;20028;-78
2021/09/24 06:22:58;;;;;;;4.70;0.65;;;;;;;13.10;73.25;100201.56;5094456;28;20020;-78
2021/09/24 06:25:24;;;;;;;10.85;1.55;;;;;;;13.07;74.07;100210.94;5093299;28;20024;-78
2021/09/24 06:27:50;;;;;;;5.55;1.05;;;;;;;13.11;75.32;100228.38;5093027;28;20021;-79
2021/09/24 06:30:20;;;;;;;6.72;1.33;;;;;;;13.19;74.12;100224.50;5097732;28;20060;-78
2021/09/24 06:32:45;;;;;;;9.45;1.00;;;;;;;13.25;75.25;100226.31;5080109;28;20029;-77
2021/09/24 06:35:11;;;;;;;6.68;1.17;;;;;;;13.18;74.45;100195.84;5082653;28;20036;-78
2021/09/24 06:37:37;;;;;;;6.43;1.10;;;;;;;13.22;75.33;100217.81;5085345;28;20047;-78
2021/09/24 06:40:05;;;;;;;8.57;1.10;;;;;;;13.12;75.88;100227.28;5083397;28;20028;-79
2021/09/24 06:42:30;;;;;;;7.40;1.23;;;;;;;13.03;75.75;100219.75;5082898;28;20056;-79
2021/09/24 06:44:57;;;;;;;5.15;1.42;;;;;;;13.01;75.45;100225.38;5103527;28;20023;-79
2021/09/24 06:47:26;;;;;;;7.65;1.20;;;;;;;13.02;74.68;100227.03;5069563;28;20035;-79
2021/09/24 06:49:52;;;;;;;5.88;1.30;;;;;;;12.97;74.63;100218.78;5101450;28;20032;-78
2021/09/24 06:52:19;;;;;;;5.38;1.10;;;;;;;13.11;74.86;100231.06;5085077;28;20042;-78
2021/09/24 06:54:44;;;;;;;9.02;1.63;;;;;;;13.17;74.32;100229.28;5103950;28;20178;-79
2021/09/24 06:57:10;;;;;;;8.15;1.52;;;;;;;13.25;74.64;100229.03;5103449;28;20043;-78
2021/09/24 06:59:36;;;;;;;7.45;1.30;;;;;;;13.30;74.76;100244.53;5101748;28;20032;-79
2021/09/24 07:02:02;;;;;;;5.68;1.00;;;;;;;13.33;74.97;100244.06;5087882;28;20047;-78
2021/09/24 07:04:27;;;;;;;4.85;0.90;;;;;;;13.30;74.65;100226.44;5085024;28;20027;-78
2021/09/24 07:06:53;;;;;;;9.90;1.27;;;;;;;13.34;74.71;100238.44;5099034;28;20083;-79
2021/09/24 07:09:18;;;;;;;8.40;1.30;;;;;;;13.37;73.97;100229.03;5105268;28;20044;-78
2021/09/24 07:11:48;;;;;;;5.68;1.35;;;;;;;13.46;74.64;100243.03;5087081;28;20465;-79
2021/09/24 07:14:18;;;;;;;8.38;1.42;;;;;;;13.43;73.94;100238.91;5105167;28;20024;-79
2021/09/24 07:16:44;;;;;;;8.10;1.50;;;;;;;13.42;74.92;100233.75;5105358;28;20031;-79
2021/09/24 07:19:10;;;;;;;6.40;1.13;;;;;;;13.40;73.96;100234.78;5103093;28;20077;-78
2021/09/24 07:21:36;;;;;;;7.15;1.30;;;;;;;13.37;73.92;100234.44;5100992;28;20032;-80
2021/09/24 07:24:02;;;;;;;7.47;1.50;;;;;;;13.45;72.50;100230.59;5112727;28;20085;-80
2021/09/24 07:26:28;;;;;;;4.85;1.13;;;;;;;13.52;71.59;100237.53;5107006;28;20059;-79
2021/09/24 07:28:57;;;;;;;5.18;0.98;;;;;;;13.54;70.69;100223.78;5079891;28;20036;-78
2021/09/24 07:31:23;;;;;;;5.97;0.85;;;;;;;13.54;70.92;100232.72;5095070;28;20043;-79
2021/09/24 07:33:49;;;;;;;4.93;1.30;;;;;;;13.61;70.11;100235.31;5078642;28;20206;-79
2021/09/24 07:36:16;;;;;;;6.70;1.27;;;;;;;13.55;70.20;100220.03;5080185;28;20119;-78
2021/09/24 07:38:42;;;;;;;6.57;1.10;;;;;;;13.58;69.96;100212.28;5062228;28;20370;-79
2021/09/24 07:41:08;;;;;;;6.20;0.90;;;;;;;13.56;70.89;100211.69;5077893;28;20024;-78
2021/09/24 07:43:33;;;;;;;4.63;0.82;;;;;;;13.54;71.91;100221.06;5077875;28;20031;-78
2021/09/24 07:45:59;;;;;;;6.25;1.15;;;;;;;13.40;72.12;100215.06;5097359;28;20028;-78
2021/09/24 07:48:24;;;;;;;7.68;1.40;;;;;;;13.31;72.53;100209.19;5096051;28;20078;-79
2021/09/24 07:50:49;;;;;;;9.02;1.55;;;;;;;13.20;73.28;100201.00;5062458;28;20028;-78
2021/09/24 07:53:15;;;;;;;8.38;1.20;;;;;;;13.05;74.17;100199.56;5097405;28;20357;-79
2021/09/24 07:55:41;;;;;;;7.43;1.20;;;;;;;13.12;73.77;100211.09;5085926;28;20071;-79
2021/09/24 07:58:08;;;;;;;8.13;1.05;;;;;;;13.14;73.32;100213.53;5069829;28;20067;-78
2021/09/24 08:00:35;;;;;;;5.05;1.05;;;;;;;13.24;73.18;100224.66;5059889;28;20115;-79
2021/09/24 08:03:04;;;;;;;9.02;1.52;;;;;;;13.40;72.86;100217.75;5075896;28;20055;-79
2021/09/24 08:05:31;;;;;;;8.15;1.63;;;;;;;13.50;73.25;100223.41;5075035;28;20063;-78
2021/09/24 08:07:57;;;;;;;7.28;1.25;;;;;;;13.52;72.98;100206.97;5082784;28;20010;-79
2021/09/24 08:10:24;;;;;;;4.97;1.00;;;;;;;13.48;71.39;100212.03;5098159;28;20404;-78
2021/09/24 08:12:51;;;;;;;10.30;1.50;;;;;;;13.59;71.87;100223.91;5081776;28;20032;-78
2021/09/24 08:15:17;;;;;;;11.27;1.33;;;;;;;13.49;72.29;100202.84;5082257;28;20037;-79
2021/09/24 08:17:42;;;;;;;8.55;1.10;;;;;;;13.54;72.67;100216.50;5082300;28;20059;-79
2021/09/24 08:20:08;;;;;;;11.32;1.35;;;;;;;13.51;71.87;100219.69;5091013;28;20043;-79
2021/09/24 08:22:38;;;;;;;7.50;1.20;;;;;;;13.56;72.81;100219.78;5102622;28;20036;-79
2021/09/24 08:25:09;;;;;;;8.35;1.30;;;;;;;13.55;71.36;100230.84;5101150;28;20035;-79
2021/09/24 08:27:35;;;;;;;8.80;1.58;;;;;;;13.62;71.14;100232.38;5102633;28;20078;-79
2021/09/24 08:30:06;;;;;;;7.05;1.30;;;;;;;13.68;71.68;100230.63;5101625;28;20052;-79
2021/09/24 08:32:36;;;;;;;6.85;1.13;;;;;;;13.69;70.81;100240.38;5102657;28;20036;-78
2021/09/24 08:35:06;;;;;;;6.63;1.23;;;;;;;13.64;70.71;100237.53;5097008;28;20107;-79
2021/09/24 08:37:33;;;;;;;6.60;1.10;;;;;;;13.64;70.92;100240.25;5095345;28;20028;-79
2021/09/24 08:39:59;;;;;;;5.63;1.20;;;;;;;13.67;71.26;100239.78;5061812;28;20024;-79
2021/09/24 08:42:26;;;;;;;9.88;1.65;;;;;;;13.69;71.37;100236.84;5082649;28;20035;-79
2021/09/24 08:44:52;;;;;;;7.38;1.08;;;;;;;13.66;71.62;100229.22;5116752;28;20035;-79
2021/09/24 08:47:18;;;;;;;10.88;1.42;;;;;;;13.80;71.76;100239.56;5122956;28;20031;-80
2021/09/24 08:49:44;;;;;;;6.45;1.20;;;;;;;13.85;70.48;100255.09;5100263;28;20029;-79
2021/09/24 08:52:10;;;;;;;7.05;1.23;;;;;;;13.88;70.30;100243.81;5083235;28;20071;-80
2021/09/24 08:54:35;;;;;;;8.07;1.60;;;;;;;13.97;70.57;100241.56;5076918;28;20027;-80
2021/09/24 08:57:02;;;;;;;7.68;1.40;;;;;;;14.01;70.07;100230.06;5101999;28;20035;-81
2021/09/24 08:59:28;;;;;;;6.10;1.40;;;;;;;14.18;70.35;100223.94;5111318;28;20392;-81
2021/09/24 09:02:02;;;;;;;6.97;1.42;;;;;;;14.24;69.12;100217.56;5101148;28;20040;-80
2021/09/24 09:04:42;;;;;;;7.45;1.25;;;;;;;14.30;68.78;100222.84;5064332;28;20032;-79
2021/09/24 09:07:11;;;;;;;4.55;1.13;;;;;;;14.32;67.60;100228.84;5084633;28;20024;-79
2021/09/24 09:09:40;;;;;;;7.78;1.30;;;;;;;14.26;66.58;100228.97;5097852;28;20020;-79
2021/09/24 09:12:19;;;;;;;9.00;1.10;;;;;;;14.26;66.23;100232.50;5098417;28;20035;-79
2021/09/24 09:15:01;;;;;;;5.28;1.10;;;;;;;14.30;65.94;100235.53;5098693;28;20028;-78
2021/09/24 09:17:39;;;;;;;4.32;0.90;;;;;;;14.17;66.54;100227.66;5099936;28;20053;-79
2021/09/24 09:20:11;;;;;;;7.25;1.00;;;;;;;14.09;66.63;100232.38;5098624;28;20020;-79
2021/09/24 09:22:37;;;;;;;5.07;1.02;;;;;;;14.14;66.96;100228.13;5098535;28;20084;-80
2021/09/24 09:25:04;;;;;;;4.72;0.90;;;;;;;14.23;67.23;100234.84;5097031;28;20426;-79
2021/09/24 09:27:29;;;;;;;4.88;0.80;;;;;;;14.29;66.30;100232.00;5075962;28;20454;-79
2021/09/24 09:30:12;;;;;;;5.78;0.88;;;;;;;14.29;66.38;100236.59;5077939;28;20064;-79
2021/09/24 09:32:43;;;;;;;5.68;0.65;;;;;;;14.30;66.94;100240.94;5094638;28;20107;-79
2021/09/24 09:35:09;;;;;;;7.95;1.35;;;;;;;14.30;68.28;100252.63;5098382;28;20016;-79
2021/09/24 09:37:36;;;;;;;4.35;0.77;;;;;;;14.18;68.18;100237.47;5095102;28;20123;-79
2021/09/24 09:40:11;;;;;;;4.93;0.90;;;;;;;14.20;68.59;100248.84;5097555;28;20032;-79
2021/09/24 09:42:40;;;;;;;4.88;0.68;;;;;;;14.17;67.97;100235.78;5098252;28;20058;-79
2021/09/24 09:45:07;;;;;;;6.40;0.93;;;;;;;14.18;68.60;100250.97;5080976;28;20033;-79
2021/09/24 09:47:36;;;;;;;4.75;0.70;;;;;;;14.26;69.78;100256.03;5075794;28;20028;-79
2021/09/24 09:50:11;;;;;;;4.10;0.60;;;;;;;14.29;70.23;100256.38;5086846;28;20553;-78
2021/09/24 09:53:07;;;;;;;3.53;0.60;;;;;;;14.36;68.89;100274.38;5075314;28;20590;-79
2021/09/24 09:55:39;;;;;;;4.45;0.50;;;;;;;14.28;69.08;100254.72;5094219;28;20101;-79
2021/09/24 09:58:08;;;;;;;4.78;0.60;;;;;;;14.26;69.71;100248.72;5094500;28;20572;-79
2021/09/24 10:00:36;;;;;;;5.07;0.60;;;;;;;14.40;70.23;100254.69;5098473;28;20028;-80
2021/09/24 10:03:07;;;;;;;3.70;0.60;;;;;;;14.49;71.44;100260.59;5109737;28;20008;-79
2021/09/24 10:05:38;;;;;;;4.53;0.93;;;;;;;14.64;71.80;100244.69;5130582;28;20030;-79
2021/09/24 10:08:33;;;;;;;7.25;1.20;;;;;;;14.84;71.71;100251.59;5131367;28;20054;-78
2021/09/24 10:11:04;;;;;;;2.83;0.55;;;;;;;14.85;72.35;100248.63;5110779;28;20125;-79
2021/09/24 10:13:33;;;;;;;8.68;1.13;;;;;;;14.72;72.45;100228.06;5113127;28;20032;-79
2021/09/24 10:15:59;;;;;;;5.97;1.15;;;;;;;14.51;73.73;100223.31;5113093;28;20012;-79
2021/09/24 10:18:24;;;;;;;5.28;0.85;;;;;;;14.43;73.48;100232.56;5095530;28;20060;-79
2021/09/24 10:20:50;;;;;;;10.02;1.40;;;;;;;14.34;74.04;100234.84;5090931;28;20051;-79
2021/09/24 10:23:16;;;;;;;11.63;1.45;;;;;;;14.31;75.05;100243.44;5112935;28;20042;-80
2021/09/24 10:25:44;;;;;;;6.75;1.33;;;;;;;14.20;75.02;100240.72;5116234;28;20032;-80
2021/09/24 10:28:11;;;;;;;7.07;1.25;;;;;;;14.14;75.17;100233.56;5118769;28;20024;-80
2021/09/24 10:30:38;;;;;;;7.18;1.33;;;;;;;13.97;75.15;100218.06;5114185;28;20056;-80
2021/09/24 10:33:13;;;;;;;8.93;1.30;;;;;;;13.92;75.50;100242.28;5097951;28;20035;-80
2021/09/24 10:35:51;;;;;;;11.52;1.63;;;;;;;13.84;76.08;100240.75;5091643;28;20019;-80
2021/09/24 10:38:21;;;;;;;13.73;2.38;;;;;;;13.71;76.19;100232.03;5106557;28;20020;-80
2021/09/24 10:40:53;;;;;;;8.98;1.50;;;;;;;13.74;76.04;100245.06;5089226;28;20016;-79
2021/09/24 10:43:18;;;;;;;15.40;1.98;;;;;;;13.65;76.39;100232.97;5080862;28;20029;-79
2021/09/24 10:45:44;;;;;;;13.70;2.20;;;;;;;13.69;77.15;100240.38;5086364;28;20085;-79
2021/09/24 10:48:23;;;;;;;15.52;2.42;;;;;;;13.81;76.74;100248.50;5083702;28;20036;-79
2021/09/24 10:50:52;;;;;;;18.02;2.40;;;;;;;13.84;76.97;100229.09;5098904;28;20123;-79
2021/09/24 10:53:23;;;;;;;13.80;1.88;;;;;;;13.93;76.76;100237.69;5083668;27;20020;-78
2021/09/24 10:55:54;;;;;;;15.55;2.13;;;;;;;13.93;76.93;100233.09;5080481;28;20020;-79
2021/09/24 10:58:23;;;;;;;12.57;2.20;;;;;;;13.99;77.34;100232.16;5080024;28;20481;-79
2021/09/24 11:00:50;;;;;;;21.02;2.88;;;;;;;13.97;77.24;100228.88;5096943;28;20024;-78
2021/09/24 11:03:19;;;;;;;16.10;2.88;;;;;;;13.98;76.45;100233.22;5099170;28;20024;-78
2021/09/24 11:06:10;;;;;;;12.98;2.30;;;;;;;13.93;75.87;100233.09;5096399;28;20032;-79
2021/09/24 11:08:40;;;;;;;13.93;2.17;;;;;;;13.87;76.15;100225.91;5084990;28;20020;-79
2021/09/24 11:11:09;;;;;;;13.65;2.58;;;;;;;13.97;76.56;100214.50;5098901;28;20028;-78
2021/09/24 11:13:38;;;;;;;13.10;1.88;;;;;;;13.87;76.74;100193.47;5097643;28;20054;-79
2021/09/24 11:16:06;;;;;;;13.15;2.03;;;;;;;14.06;77.00;100210.41;5099637;28;20023;-79
2021/09/24 11:18:50;;;;;;;13.75;2.20;;;;;;;14.04;77.06;100207.13;5097434;28;20020;-79
2021/09/24 11:21:35;;;;;;;12.83;2.47;;;;;;;14.06;77.25;100205.00;5099586;28;20020;-79
2021/09/24 11:24:02;;;;;;;12.15;2.00;;;;;;;13.97;78.17;100198.28;5094050;28;20276;-79